sensor_id;sensor_type;location;lat;lon;timestamp;P1;durP1;ratioP1;P2;durP2;ratioP2
13218;SDS011;6674;49.152;11.918;2023-01-24T00:00:33;13.60;;;11.43;;
13218;SDS011;6674;49.152;11.918;2023-01-24T00:03:01;13.00;;;10.53;;
13218;SDS011;6674;49.152;11.918;2023-01-24T00:05:29;13.50;;;10.33;;
13218;SDS011;6674;49.152;11.918;2023-01-24T00:07:57;11.93;;;9.50;;
13218;SDS011;6674;49.152;11.918;2023-01-24T00:10:26;12.63;;;10.20;;
13218;SDS011;6674;49.152;11.918;2023-01-24T00:12:56;13.30;;;10.40;;
13218;SDS011;6674;49.152;11.918;2023-01-24T00:15:23;11.47;;;9.73;;
13218;SDS011;6674;49.152;11.918;2023-01-24T00:17:49;12.17;;;10.30;;
13218;SDS011;6674;49.152;11.918;2023-01-24T00:20:16;11.60;;;9.40;;
13218;SDS011;6674;49.152;11.918;2023-01-24T00:22:43;11.63;;;9.10;;
13218;SDS011;6674;49.152;11.918;2023-01-24T00:25:10;10.70;;;9.60;;
13218;SDS011;6674;49.152;11.918;2023-01-24T00:27:38;11.23;;;9.17;;
13218;SDS011;6674;49.152;11.918;2023-01-24T00:30:05;11.03;;;9.10;;
13218;SDS011;6674;49.152;11.918;2023-01-24T00:32:32;10.23;;;8.60;;
13218;SDS011;6674;49.152;11.918;2023-01-24T00:34:59;9.60;;;7.33;;
13218;SDS011;6674;49.152;11.918;2023-01-24T00:37:26;9.67;;;8.13;;
13218;SDS011;6674;49.152;11.918;2023-01-24T00:39:53;9.90;;;8.27;;
13218;SDS011;6674;49.152;11.918;2023-01-24T00:42:20;9.43;;;8.30;;
13218;SDS011;6674;49.152;11.918;2023-01-24T00:44:48;9.67;;;7.60;;
13218;SDS011;6674;49.152;11.918;2023-01-24T00:47:14;8.87;;;7.70;;
13218;SDS011;6674;49.152;11.918;2023-01-24T00:49:41;9.30;;;7.33;;
13218;SDS011;6674;49.152;11.918;2023-01-24T00:52:07;9.47;;;7.80;;
13218;SDS011;6674;49.152;11.918;2023-01-24T00:54:34;8.63;;;7.07;;
13218;SDS011;6674;49.152;11.918;2023-01-24T00:57:01;9.67;;;8.17;;
13218;SDS011;6674;49.152;11.918;2023-01-24T00:59:27;8.47;;;7.57;;
13218;SDS011;6674;49.152;11.918;2023-01-24T01:01:55;10.60;;;9.03;;
13218;SDS011;6674;49.152;11.918;2023-01-24T01:04:23;10.83;;;8.60;;
13218;SDS011;6674;49.152;11.918;2023-01-24T01:06:49;9.13;;;7.83;;
13218;SDS011;6674;49.152;11.918;2023-01-24T01:09:16;10.10;;;8.30;;
13218;SDS011;6674;49.152;11.918;2023-01-24T01:11:43;10.13;;;8.30;;
13218;SDS011;6674;49.152;11.918;2023-01-24T01:14:09;10.13;;;8.10;;
13218;SDS011;6674;49.152;11.918;2023-01-24T01:16:36;8.60;;;6.90;;
13218;SDS011;6674;49.152;11.918;2023-01-24T01:19:04;7.90;;;6.90;;
13218;SDS011;6674;49.152;11.918;2023-01-24T01:21:32;8.50;;;7.23;;
13218;SDS011;6674;49.152;11.918;2023-01-24T01:23:59;8.00;;;7.20;;
13218;SDS011;6674;49.152;11.918;2023-01-24T01:26:26;8.70;;;7.40;;
13218;SDS011;6674;49.152;11.918;2023-01-24T01:28:53;9.83;;;7.60;;
13218;SDS011;6674;49.152;11.918;2023-01-24T01:31:20;7.67;;;6.53;;
13218;SDS011;6674;49.152;11.918;2023-01-24T01:33:47;8.07;;;6.80;;
13218;SDS011;6674;49.152;11.918;2023-01-24T01:36:15;8.70;;;6.87;;
13218;SDS011;6674;49.152;11.918;2023-01-24T01:38:41;7.87;;;6.40;;
13218;SDS011;6674;49.152;11.918;2023-01-24T01:41:08;8.87;;;6.83;;
13218;SDS011;6674;49.152;11.918;2023-01-24T01:43:36;8.13;;;7.07;;
13218;SDS011;6674;49.152;11.918;2023-01-24T01:46:23;8.13;;;7.20;;
13218;SDS011;6674;49.152;11.918;2023-01-24T01:48:53;9.03;;;7.73;;
13218;SDS011;6674;49.152;11.918;2023-01-24T01:51:24;7.90;;;7.10;;
13218;SDS011;6674;49.152;11.918;2023-01-24T01:53:55;8.73;;;6.60;;
13218;SDS011;6674;49.152;11.918;2023-01-24T01:56:27;9.17;;;7.53;;
13218;SDS011;6674;49.152;11.918;2023-01-24T01:58:58;7.60;;;6.80;;
13218;SDS011;6674;49.152;11.918;2023-01-24T02:01:29;8.07;;;6.97;;
13218;SDS011;6674;49.152;11.918;2023-01-24T02:03:59;9.10;;;7.43;;
13218;SDS011;6674;49.152;11.918;2023-01-24T02:06:36;8.77;;;7.20;;
13218;SDS011;6674;49.152;11.918;2023-01-24T02:09:13;7.23;;;6.23;;
13218;SDS011;6674;49.152;11.918;2023-01-24T02:11:43;6.80;;;5.83;;
13218;SDS011;6674;49.152;11.918;2023-01-24T02:14:11;7.37;;;6.60;;
13218;SDS011;6674;49.152;11.918;2023-01-24T02:16:58;6.57;;;5.87;;
13218;SDS011;6674;49.152;11.918;2023-01-24T02:19:38;7.80;;;6.30;;
13218;SDS011;6674;49.152;11.918;2023-01-24T02:22:15;6.50;;;5.63;;
13218;SDS011;6674;49.152;11.918;2023-01-24T02:24:48;6.70;;;5.63;;
13218;SDS011;6674;49.152;11.918;2023-01-24T02:27:23;6.53;;;5.57;;
13218;SDS011;6674;49.152;11.918;2023-01-24T02:29:50;7.30;;;5.90;;
13218;SDS011;6674;49.152;11.918;2023-01-24T02:32:16;6.90;;;5.60;;
13218;SDS011;6674;49.152;11.918;2023-01-24T02:34:43;6.20;;;5.40;;
13218;SDS011;6674;49.152;11.918;2023-01-24T02:37:11;6.30;;;5.63;;
13218;SDS011;6674;49.152;11.918;2023-01-24T02:39:43;6.97;;;5.70;;
13218;SDS011;6674;49.152;11.918;2023-01-24T02:42:14;6.47;;;5.57;;
13218;SDS011;6674;49.152;11.918;2023-01-24T02:44:44;6.67;;;5.40;;
13218;SDS011;6674;49.152;11.918;2023-01-24T02:47:14;7.00;;;5.93;;
13218;SDS011;6674;49.152;11.918;2023-01-24T02:49:41;7.00;;;5.77;;
13218;SDS011;6674;49.152;11.918;2023-01-24T02:52:07;7.10;;;6.30;;
13218;SDS011;6674;49.152;11.918;2023-01-24T02:54:52;7.30;;;6.23;;
13218;SDS011;6674;49.152;11.918;2023-01-24T02:57:19;7.30;;;6.50;;
13218;SDS011;6674;49.152;11.918;2023-01-24T03:00:05;7.27;;;6.10;;
13218;SDS011;6674;49.152;11.918;2023-01-24T03:02:33;7.77;;;6.60;;
13218;SDS011;6674;49.152;11.918;2023-01-24T03:04:59;7.13;;;6.03;;
13218;SDS011;6674;49.152;11.918;2023-01-24T03:07:26;8.60;;;6.57;;
13218;SDS011;6674;49.152;11.918;2023-01-24T03:10:08;7.20;;;6.50;;
13218;SDS011;6674;49.152;11.918;2023-01-24T03:12:35;7.17;;;6.43;;
13218;SDS011;6674;49.152;11.918;2023-01-24T03:15:20;7.43;;;6.33;;
13218;SDS011;6674;49.152;11.918;2023-01-24T03:18:05;7.53;;;6.00;;
13218;SDS011;6674;49.152;11.918;2023-01-24T03:20:49;7.40;;;6.63;;
13218;SDS011;6674;49.152;11.918;2023-01-24T03:23:34;7.57;;;6.50;;
13218;SDS011;6674;49.152;11.918;2023-01-24T03:26:18;8.53;;;7.10;;
13218;SDS011;6674;49.152;11.918;2023-01-24T03:29:02;6.97;;;6.13;;
13218;SDS011;6674;49.152;11.918;2023-01-24T03:31:48;8.10;;;6.20;;
13218;SDS011;6674;49.152;11.918;2023-01-24T03:34:32;7.47;;;6.47;;
13218;SDS011;6674;49.152;11.918;2023-01-24T03:36:59;6.40;;;5.73;;
13218;SDS011;6674;49.152;11.918;2023-01-24T03:39:26;7.13;;;6.40;;
13218;SDS011;6674;49.152;11.918;2023-01-24T03:42:11;7.20;;;6.13;;
13218;SDS011;6674;49.152;11.918;2023-01-24T03:44:39;7.33;;;5.70;;
13218;SDS011;6674;49.152;11.918;2023-01-24T03:47:07;6.17;;;5.57;;
13218;SDS011;6674;49.152;11.918;2023-01-24T03:49:33;6.77;;;5.70;;
13218;SDS011;6674;49.152;11.918;2023-01-24T03:52:18;7.00;;;6.30;;
13218;SDS011;6674;49.152;11.918;2023-01-24T03:54:51;5.80;;;5.20;;
13218;SDS011;6674;49.152;11.918;2023-01-24T03:57:18;6.70;;;5.63;;
13218;SDS011;6674;49.152;11.918;2023-01-24T03:59:45;6.30;;;5.33;;
13218;SDS011;6674;49.152;11.918;2023-01-24T04:02:14;6.23;;;5.43;;
13218;SDS011;6674;49.152;11.918;2023-01-24T04:04:41;6.63;;;5.53;;
13218;SDS011;6674;49.152;11.918;2023-01-24T04:07:26;6.23;;;5.63;;
13218;SDS011;6674;49.152;11.918;2023-01-24T04:09:53;5.93;;;5.27;;
13218;SDS011;6674;49.152;11.918;2023-01-24T04:12:20;6.03;;;5.30;;
13218;SDS011;6674;49.152;11.918;2023-01-24T04:14:46;6.13;;;5.47;;
13218;SDS011;6674;49.152;11.918;2023-01-24T04:17:14;5.93;;;5.33;;
13218;SDS011;6674;49.152;11.918;2023-01-24T04:19:41;6.73;;;6.07;;
13218;SDS011;6674;49.152;11.918;2023-01-24T04:22:09;6.53;;;5.47;;
13218;SDS011;6674;49.152;11.918;2023-01-24T04:24:36;6.90;;;6.10;;
13218;SDS011;6674;49.152;11.918;2023-01-24T04:27:02;5.93;;;5.20;;
13218;SDS011;6674;49.152;11.918;2023-01-24T04:29:29;7.47;;;6.33;;
13218;SDS011;6674;49.152;11.918;2023-01-24T04:31:56;7.87;;;5.90;;
13218;SDS011;6674;49.152;11.918;2023-01-24T04:34:23;5.73;;;5.10;;
13218;SDS011;6674;49.152;11.918;2023-01-24T04:36:50;6.50;;;5.90;;
13218;SDS011;6674;49.152;11.918;2023-01-24T04:39:17;7.20;;;6.30;;
13218;SDS011;6674;49.152;11.918;2023-01-24T04:41:44;6.57;;;5.57;;
13218;SDS011;6674;49.152;11.918;2023-01-24T04:44:11;6.77;;;6.07;;
13218;SDS011;6674;49.152;11.918;2023-01-24T04:46:38;6.70;;;6.00;;
13218;SDS011;6674;49.152;11.918;2023-01-24T04:49:04;6.73;;;5.80;;
13218;SDS011;6674;49.152;11.918;2023-01-24T04:51:32;6.90;;;5.37;;
13218;SDS011;6674;49.152;11.918;2023-01-24T04:53:59;6.17;;;5.57;;
13218;SDS011;6674;49.152;11.918;2023-01-24T04:56:26;6.80;;;5.60;;
13218;SDS011;6674;49.152;11.918;2023-01-24T04:58:52;5.63;;;4.90;;
13218;SDS011;6674;49.152;11.918;2023-01-24T05:01:19;6.67;;;5.67;;
13218;SDS011;6674;49.152;11.918;2023-01-24T05:03:46;7.20;;;5.40;;
13218;SDS011;6674;49.152;11.918;2023-01-24T05:06:12;7.00;;;5.90;;
13218;SDS011;6674;49.152;11.918;2023-01-24T05:08:40;6.50;;;5.80;;
13218;SDS011;6674;49.152;11.918;2023-01-24T05:11:07;6.17;;;5.57;;
13218;SDS011;6674;49.152;11.918;2023-01-24T05:13:33;6.60;;;5.77;;
13218;SDS011;6674;49.152;11.918;2023-01-24T05:16:00;6.27;;;5.37;;
13218;SDS011;6674;49.152;11.918;2023-01-24T05:18:29;5.60;;;5.03;;
13218;SDS011;6674;49.152;11.918;2023-01-24T05:20:55;7.40;;;6.20;;
13218;SDS011;6674;49.152;11.918;2023-01-24T05:23:29;7.13;;;5.80;;
13218;SDS011;6674;49.152;11.918;2023-01-24T05:25:59;5.70;;;4.93;;
13218;SDS011;6674;49.152;11.918;2023-01-24T05:28:25;5.17;;;4.57;;
13218;SDS011;6674;49.152;11.918;2023-01-24T05:30:57;5.60;;;5.10;;
13218;SDS011;6674;49.152;11.918;2023-01-24T05:33:25;5.30;;;4.80;;
13218;SDS011;6674;49.152;11.918;2023-01-24T05:35:56;5.60;;;5.07;;
13218;SDS011;6674;49.152;11.918;2023-01-24T05:38:24;6.43;;;5.77;;
13218;SDS011;6674;49.152;11.918;2023-01-24T05:40:52;6.00;;;5.13;;
13218;SDS011;6674;49.152;11.918;2023-01-24T05:43:20;6.70;;;5.63;;
13218;SDS011;6674;49.152;11.918;2023-01-24T05:45:46;6.10;;;5.50;;
13218;SDS011;6674;49.152;11.918;2023-01-24T05:48:14;6.10;;;5.50;;
13218;SDS011;6674;49.152;11.918;2023-01-24T05:50:41;6.20;;;5.27;;
13218;SDS011;6674;49.152;11.918;2023-01-24T05:53:07;7.03;;;6.17;;
13218;SDS011;6674;49.152;11.918;2023-01-24T05:55:34;6.70;;;5.63;;
13218;SDS011;6674;49.152;11.918;2023-01-24T05:58:01;5.00;;;4.50;;
13218;SDS011;6674;49.152;11.918;2023-01-24T06:00:29;6.90;;;6.20;;
13218;SDS011;6674;49.152;11.918;2023-01-24T06:03:00;6.13;;;5.50;;
13218;SDS011;6674;49.152;11.918;2023-01-24T06:05:27;12.07;;;8.90;;
13218;SDS011;6674;49.152;11.918;2023-01-24T06:07:54;9.20;;;7.37;;
13218;SDS011;6674;49.152;11.918;2023-01-24T06:10:23;8.43;;;6.63;;
13218;SDS011;6674;49.152;11.918;2023-01-24T06:12:49;6.83;;;5.97;;
13218;SDS011;6674;49.152;11.918;2023-01-24T06:15:16;6.20;;;5.50;;
13218;SDS011;6674;49.152;11.918;2023-01-24T06:17:44;6.77;;;5.70;;
13218;SDS011;6674;49.152;11.918;2023-01-24T06:20:11;5.83;;;4.97;;
13218;SDS011;6674;49.152;11.918;2023-01-24T06:22:42;5.60;;;4.77;;
13218;SDS011;6674;49.152;11.918;2023-01-24T06:25:23;6.03;;;5.33;;
13218;SDS011;6674;49.152;11.918;2023-01-24T06:27:52;5.87;;;5.27;;
13218;SDS011;6674;49.152;11.918;2023-01-24T06:30:19;6.93;;;6.20;;
13218;SDS011;6674;49.152;11.918;2023-01-24T06:32:55;5.83;;;5.23;;
13218;SDS011;6674;49.152;11.918;2023-01-24T06:35:33;6.10;;;5.30;;
13218;SDS011;6674;49.152;11.918;2023-01-24T06:38:06;11.30;;;9.47;;
13218;SDS011;6674;49.152;11.918;2023-01-24T06:40:44;10.83;;;9.60;;
13218;SDS011;6674;49.152;11.918;2023-01-24T06:43:12;11.87;;;10.07;;
13218;SDS011;6674;49.152;11.918;2023-01-24T06:45:39;14.80;;;11.73;;
13218;SDS011;6674;49.152;11.918;2023-01-24T06:48:07;8.40;;;6.90;;
13218;SDS011;6674;49.152;11.918;2023-01-24T06:50:34;7.00;;;6.27;;
13218;SDS011;6674;49.152;11.918;2023-01-24T06:53:01;8.73;;;7.93;;
13218;SDS011;6674;49.152;11.918;2023-01-24T06:55:29;6.77;;;6.03;;
13218;SDS011;6674;49.152;11.918;2023-01-24T06:57:58;7.20;;;6.50;;
13218;SDS011;6674;49.152;11.918;2023-01-24T07:00:28;6.17;;;5.57;;
13218;SDS011;6674;49.152;11.918;2023-01-24T07:02:58;6.70;;;5.97;;
13218;SDS011;6674;49.152;11.918;2023-01-24T07:05:34;7.10;;;5.10;;
13218;SDS011;6674;49.152;11.918;2023-01-24T07:08:02;5.37;;;4.87;;
13218;SDS011;6674;49.152;11.918;2023-01-24T07:10:30;7.00;;;6.00;;
13218;SDS011;6674;49.152;11.918;2023-01-24T07:12:58;7.93;;;6.70;;
13218;SDS011;6674;49.152;11.918;2023-01-24T07:15:25;7.37;;;6.50;;
13218;SDS011;6674;49.152;11.918;2023-01-24T07:17:52;10.10;;;7.50;;
13218;SDS011;6674;49.152;11.918;2023-01-24T07:20:19;7.10;;;6.40;;
13218;SDS011;6674;49.152;11.918;2023-01-24T07:22:48;6.33;;;5.73;;
13218;SDS011;6674;49.152;11.918;2023-01-24T07:25:16;8.43;;;7.47;;
13218;SDS011;6674;49.152;11.918;2023-01-24T07:27:45;9.70;;;8.70;;
13218;SDS011;6674;49.152;11.918;2023-01-24T07:30:13;7.87;;;7.07;;
13218;SDS011;6674;49.152;11.918;2023-01-24T07:32:40;7.00;;;6.30;;
13218;SDS011;6674;49.152;11.918;2023-01-24T07:35:07;9.50;;;8.50;;
13218;SDS011;6674;49.152;11.918;2023-01-24T07:37:34;7.67;;;6.87;;
13218;SDS011;6674;49.152;11.918;2023-01-24T07:40:03;8.77;;;7.57;;
13218;SDS011;6674;49.152;11.918;2023-01-24T07:42:30;7.60;;;6.80;;
13218;SDS011;6674;49.152;11.918;2023-01-24T07:44:56;7.40;;;6.70;;
13218;SDS011;6674;49.152;11.918;2023-01-24T07:47:26;12.97;;;11.67;;
13218;SDS011;6674;49.152;11.918;2023-01-24T07:49:53;10.00;;;9.00;;
13218;SDS011;6674;49.152;11.918;2023-01-24T07:52:19;8.37;;;7.57;;
13218;SDS011;6674;49.152;11.918;2023-01-24T07:54:47;9.70;;;8.57;;
13218;SDS011;6674;49.152;11.918;2023-01-24T07:57:15;11.07;;;9.87;;
13218;SDS011;6674;49.152;11.918;2023-01-24T07:59:41;11.97;;;10.70;;
13218;SDS011;6674;49.152;11.918;2023-01-24T08:02:09;8.07;;;7.23;;
13218;SDS011;6674;49.152;11.918;2023-01-24T08:04:36;8.37;;;7.17;;
13218;SDS011;6674;49.152;11.918;2023-01-24T08:07:03;8.93;;;7.67;;
13218;SDS011;6674;49.152;11.918;2023-01-24T08:09:45;18.10;;;11.87;;
13218;SDS011;6674;49.152;11.918;2023-01-24T08:12:14;18.87;;;12.30;;
13218;SDS011;6674;49.152;11.918;2023-01-24T08:14:41;42.10;;;22.90;;
13218;SDS011;6674;49.152;11.918;2023-01-24T08:17:08;24.07;;;21.77;;
13218;SDS011;6674;49.152;11.918;2023-01-24T08:19:35;14.80;;;13.50;;
13218;SDS011;6674;49.152;11.918;2023-01-24T08:22:04;16.43;;;14.93;;
13218;SDS011;6674;49.152;11.918;2023-01-24T08:24:30;11.40;;;10.23;;
13218;SDS011;6674;49.152;11.918;2023-01-24T08:26:58;13.30;;;11.67;;
13218;SDS011;6674;49.152;11.918;2023-01-24T08:29:26;16.73;;;13.97;;
13218;SDS011;6674;49.152;11.918;2023-01-24T08:31:53;15.30;;;12.53;;
13218;SDS011;6674;49.152;11.918;2023-01-24T08:34:20;7.30;;;6.60;;
13218;SDS011;6674;49.152;11.918;2023-01-24T08:36:47;9.10;;;8.20;;
13218;SDS011;6674;49.152;11.918;2023-01-24T08:39:15;10.77;;;9.53;;
13218;SDS011;6674;49.152;11.918;2023-01-24T08:41:42;9.37;;;8.47;;
13218;SDS011;6674;49.152;11.918;2023-01-24T08:44:11;9.33;;;8.40;;
13218;SDS011;6674;49.152;11.918;2023-01-24T08:46:39;6.17;;;5.57;;
13218;SDS011;6674;49.152;11.918;2023-01-24T08:49:06;6.23;;;5.63;;
13218;SDS011;6674;49.152;11.918;2023-01-24T08:51:32;7.60;;;6.80;;
13218;SDS011;6674;49.152;11.918;2023-01-24T08:53:59;7.30;;;6.47;;
13218;SDS011;6674;49.152;11.918;2023-01-24T08:56:26;11.60;;;9.63;;
13218;SDS011;6674;49.152;11.918;2023-01-24T08:58:52;22.73;;;17.60;;
13218;SDS011;6674;49.152;11.918;2023-01-24T09:01:19;34.50;;;21.73;;
13218;SDS011;6674;49.152;11.918;2023-01-24T09:03:47;12.67;;;10.13;;
13218;SDS011;6674;49.152;11.918;2023-01-24T09:06:15;20.17;;;15.43;;
13218;SDS011;6674;49.152;11.918;2023-01-24T09:08:41;20.83;;;15.63;;
13218;SDS011;6674;49.152;11.918;2023-01-24T09:11:08;24.57;;;17.50;;
13218;SDS011;6674;49.152;11.918;2023-01-24T09:13:34;46.00;;;33.00;;
13218;SDS011;6674;49.152;11.918;2023-01-24T09:16:01;34.13;;;26.63;;
13218;SDS011;6674;49.152;11.918;2023-01-24T09:18:29;19.30;;;16.67;;
13218;SDS011;6674;49.152;11.918;2023-01-24T09:21:00;13.03;;;11.37;;
13218;SDS011;6674;49.152;11.918;2023-01-24T09:23:28;20.00;;;17.80;;
13218;SDS011;6674;49.152;11.918;2023-01-24T09:25:55;9.77;;;8.77;;
13218;SDS011;6674;49.152;11.918;2023-01-24T09:28:21;19.77;;;16.10;;
13218;SDS011;6674;49.152;11.918;2023-01-24T09:30:48;11.63;;;10.17;;
13218;SDS011;6674;49.152;11.918;2023-01-24T09:33:15;8.23;;;7.43;;
13218;SDS011;6674;49.152;11.918;2023-01-24T09:35:42;7.37;;;6.50;;
13218;SDS011;6674;49.152;11.918;2023-01-24T09:38:19;7.67;;;6.87;;
13218;SDS011;6674;49.152;11.918;2023-01-24T09:40:50;7.70;;;7.00;;
13218;SDS011;6674;49.152;11.918;2023-01-24T09:43:28;7.57;;;6.77;;
13218;SDS011;6674;49.152;11.918;2023-01-24T09:46:04;7.40;;;6.70;;
13218;SDS011;6674;49.152;11.918;2023-01-24T09:48:41;6.87;;;6.17;;
13218;SDS011;6674;49.152;11.918;2023-01-24T09:51:10;7.03;;;6.33;;
13218;SDS011;6674;49.152;11.918;2023-01-24T09:53:42;6.93;;;6.23;;
13218;SDS011;6674;49.152;11.918;2023-01-24T09:56:11;8.10;;;6.40;;
13218;SDS011;6674;49.152;11.918;2023-01-24T09:58:56;8.23;;;7.00;;
13218;SDS011;6674;49.152;11.918;2023-01-24T10:01:35;7.27;;;6.57;;
13218;SDS011;6674;49.152;11.918;2023-01-24T10:04:03;8.13;;;7.33;;
13218;SDS011;6674;49.152;11.918;2023-01-24T10:06:30;7.63;;;6.83;;
13218;SDS011;6674;49.152;11.918;2023-01-24T10:09:01;7.40;;;6.33;;
13218;SDS011;6674;49.152;11.918;2023-01-24T10:11:37;8.70;;;7.57;;
13218;SDS011;6674;49.152;11.918;2023-01-24T10:14:15;8.73;;;7.10;;
13218;SDS011;6674;49.152;11.918;2023-01-24T10:17:02;8.07;;;6.97;;
13218;SDS011;6674;49.152;11.918;2023-01-24T10:22:58;8.57;;;7.60;;
13218;SDS011;6674;49.152;11.918;2023-01-24T10:25:32;8.17;;;7.20;;
13218;SDS011;6674;49.152;11.918;2023-01-24T10:28:13;10.10;;;7.57;;
13218;SDS011;6674;49.152;11.918;2023-01-24T10:30:47;7.70;;;6.80;;
13218;SDS011;6674;49.152;11.918;2023-01-24T10:33:19;7.83;;;7.07;;
13218;SDS011;6674;49.152;11.918;2023-01-24T10:35:52;8.37;;;6.93;;
13218;SDS011;6674;49.152;11.918;2023-01-24T10:38:22;8.43;;;6.77;;
13218;SDS011;6674;49.152;11.918;2023-01-24T10:40:50;7.63;;;6.83;;
13218;SDS011;6674;49.152;11.918;2023-01-24T10:43:19;7.67;;;6.87;;
13218;SDS011;6674;49.152;11.918;2023-01-24T10:45:50;8.07;;;7.27;;
13218;SDS011;6674;49.152;11.918;2023-01-24T10:48:31;7.83;;;7.03;;
13218;SDS011;6674;49.152;11.918;2023-01-24T10:51:11;7.00;;;6.23;;
13218;SDS011;6674;49.152;11.918;2023-01-24T10:53:39;8.27;;;7.37;;
13218;SDS011;6674;49.152;11.918;2023-01-24T10:56:07;8.70;;;7.27;;
13218;SDS011;6674;49.152;11.918;2023-01-24T10:58:35;7.60;;;6.80;;
13218;SDS011;6674;49.152;11.918;2023-01-24T11:01:06;7.90;;;7.10;;
13218;SDS011;6674;49.152;11.918;2023-01-24T11:03:36;8.53;;;7.63;;
13218;SDS011;6674;49.152;11.918;2023-01-24T11:06:09;7.20;;;6.50;;
13218;SDS011;6674;49.152;11.918;2023-01-24T11:08:47;7.80;;;7.10;;
13218;SDS011;6674;49.152;11.918;2023-01-24T11:11:22;7.13;;;6.10;;
13218;SDS011;6674;49.152;11.918;2023-01-24T11:13:55;7.03;;;6.33;;
13218;SDS011;6674;49.152;11.918;2023-01-24T11:16:23;7.00;;;6.30;;
13218;SDS011;6674;49.152;11.918;2023-01-24T11:18:56;7.57;;;6.83;;
13218;SDS011;6674;49.152;11.918;2023-01-24T11:21:27;7.40;;;6.50;;
13218;SDS011;6674;49.152;11.918;2023-01-24T11:24:02;6.63;;;5.93;;
13218;SDS011;6674;49.152;11.918;2023-01-24T11:26:50;7.27;;;6.53;;
13218;SDS011;6674;49.152;11.918;2023-01-24T11:29:19;7.37;;;6.67;;
13218;SDS011;6674;49.152;11.918;2023-01-24T11:31:47;7.70;;;6.90;;
13218;SDS011;6674;49.152;11.918;2023-01-24T11:37:22;7.47;;;6.77;;
13218;SDS011;6674;49.152;11.918;2023-01-24T11:40:02;6.90;;;6.20;;
13218;SDS011;6674;49.152;11.918;2023-01-24T11:42:47;7.60;;;6.80;;
13218;SDS011;6674;49.152;11.918;2023-01-24T11:48:22;6.83;;;5.87;;
13218;SDS011;6674;49.152;11.918;2023-01-24T11:50:54;7.30;;;6.60;;
13218;SDS011;6674;49.152;11.918;2023-01-24T11:53:34;7.30;;;6.60;;
13218;SDS011;6674;49.152;11.918;2023-01-24T11:56:10;7.13;;;6.43;;
13218;SDS011;6674;49.152;11.918;2023-01-24T11:58:54;7.57;;;6.77;;
13218;SDS011;6674;49.152;11.918;2023-01-24T12:01:30;7.40;;;6.63;;
13218;SDS011;6674;49.152;11.918;2023-01-24T12:04:21;6.87;;;6.17;;
13218;SDS011;6674;49.152;11.918;2023-01-24T12:07:12;7.67;;;6.90;;
13218;SDS011;6674;49.152;11.918;2023-01-24T12:09:47;7.50;;;6.80;;
13218;SDS011;6674;49.152;11.918;2023-01-24T12:12:19;7.90;;;7.10;;
13218;SDS011;6674;49.152;11.918;2023-01-24T12:14:59;7.43;;;6.73;;
13218;SDS011;6674;49.152;11.918;2023-01-24T12:17:36;6.47;;;5.80;;
13218;SDS011;6674;49.152;11.918;2023-01-24T12:20:23;7.07;;;5.97;;
13218;SDS011;6674;49.152;11.918;2023-01-24T12:23:02;8.10;;;7.10;;
13218;SDS011;6674;49.152;11.918;2023-01-24T12:25:44;6.93;;;6.30;;
13218;SDS011;6674;49.152;11.918;2023-01-24T12:28:13;7.47;;;6.27;;
13218;SDS011;6674;49.152;11.918;2023-01-24T12:30:51;8.33;;;7.13;;
13218;SDS011;6674;49.152;11.918;2023-01-24T12:33:25;7.60;;;6.80;;
13218;SDS011;6674;49.152;11.918;2023-01-24T12:35:57;7.70;;;6.90;;
13218;SDS011;6674;49.152;11.918;2023-01-24T12:38:28;8.00;;;7.20;;
13218;SDS011;6674;49.152;11.918;2023-01-24T12:41:07;8.37;;;6.97;;
13218;SDS011;6674;49.152;11.918;2023-01-24T12:43:45;8.80;;;7.57;;
13218;SDS011;6674;49.152;11.918;2023-01-24T12:46:21;6.90;;;6.20;;
13218;SDS011;6674;49.152;11.918;2023-01-24T12:48:53;6.77;;;6.10;;
13218;SDS011;6674;49.152;11.918;2023-01-24T12:51:27;7.50;;;6.70;;
13218;SDS011;6674;49.152;11.918;2023-01-24T12:54:02;7.93;;;7.13;;
13218;SDS011;6674;49.152;11.918;2023-01-24T12:56:35;10.23;;;7.57;;
13218;SDS011;6674;49.152;11.918;2023-01-24T12:59:10;7.50;;;6.67;;
13218;SDS011;6674;49.152;11.918;2023-01-24T13:02:02;7.33;;;6.63;;
13218;SDS011;6674;49.152;11.918;2023-01-24T13:04:45;7.87;;;7.07;;
13218;SDS011;6674;49.152;11.918;2023-01-24T13:07:20;8.53;;;7.50;;
13218;SDS011;6674;49.152;11.918;2023-01-24T13:09:58;8.97;;;7.70;;
13218;SDS011;6674;49.152;11.918;2023-01-24T13:12:30;8.20;;;7.23;;
13218;SDS011;6674;49.152;11.918;2023-01-24T13:14:58;8.57;;;7.77;;
13218;SDS011;6674;49.152;11.918;2023-01-24T13:20:31;8.50;;;7.70;;
13218;SDS011;6674;49.152;11.918;2023-01-24T13:23:22;9.07;;;8.07;;
13218;SDS011;6674;49.152;11.918;2023-01-24T13:29:01;9.37;;;8.37;;
13218;SDS011;6674;49.152;11.918;2023-01-24T13:31:45;9.20;;;8.23;;
13218;SDS011;6674;49.152;11.918;2023-01-24T13:34:20;9.30;;;8.33;;
13218;SDS011;6674;49.152;11.918;2023-01-24T13:36:51;8.33;;;7.50;;
13218;SDS011;6674;49.152;11.918;2023-01-24T13:39:29;9.30;;;8.30;;
13218;SDS011;6674;49.152;11.918;2023-01-24T13:42:03;9.63;;;8.63;;
13218;SDS011;6674;49.152;11.918;2023-01-24T13:44:32;10.20;;;9.10;;
13218;SDS011;6674;49.152;11.918;2023-01-24T13:47:20;9.70;;;8.70;;
13218;SDS011;6674;49.152;11.918;2023-01-24T13:52:47;8.47;;;7.37;;
13218;SDS011;6674;49.152;11.918;2023-01-24T13:58:24;9.77;;;8.77;;
13218;SDS011;6674;49.152;11.918;2023-01-24T14:00:55;8.63;;;7.73;;
13218;SDS011;6674;49.152;11.918;2023-01-24T14:03:26;9.67;;;8.47;;
13218;SDS011;6674;49.152;11.918;2023-01-24T14:06:03;9.53;;;8.37;;
13218;SDS011;6674;49.152;11.918;2023-01-24T14:08:41;9.33;;;8.43;;
13218;SDS011;6674;49.152;11.918;2023-01-24T14:11:21;9.60;;;8.57;;
13218;SDS011;6674;49.152;11.918;2023-01-24T14:14:01;10.57;;;8.90;;
13218;SDS011;6674;49.152;11.918;2023-01-24T14:19:33;10.07;;;8.30;;
13218;SDS011;6674;49.152;11.918;2023-01-24T14:22:05;9.67;;;8.13;;
13218;SDS011;6674;49.152;11.918;2023-01-24T14:24:49;10.00;;;8.37;;
13218;SDS011;6674;49.152;11.918;2023-01-24T14:27:21;10.70;;;9.20;;
13218;SDS011;6674;49.152;11.918;2023-01-24T14:29:54;12.50;;;9.10;;
13218;SDS011;6674;49.152;11.918;2023-01-24T14:32:28;11.87;;;9.70;;
13218;SDS011;6674;49.152;11.918;2023-01-24T14:35:01;12.77;;;9.50;;
13218;SDS011;6674;49.152;11.918;2023-01-24T14:37:39;12.60;;;10.40;;
13218;SDS011;6674;49.152;11.918;2023-01-24T14:40:10;18.47;;;12.23;;
13218;SDS011;6674;49.152;11.918;2023-01-24T14:42:44;21.77;;;15.53;;
13218;SDS011;6674;49.152;11.918;2023-01-24T14:45:12;25.43;;;15.70;;
13218;SDS011;6674;49.152;11.918;2023-01-24T14:47:41;24.37;;;16.53;;
13218;SDS011;6674;49.152;11.918;2023-01-24T14:50:18;36.30;;;23.77;;
13218;SDS011;6674;49.152;11.918;2023-01-24T14:52:49;29.13;;;21.03;;
13218;SDS011;6674;49.152;11.918;2023-01-24T14:55:32;29.97;;;19.30;;
13218;SDS011;6674;49.152;11.918;2023-01-24T14:58:15;33.10;;;21.80;;
13218;SDS011;6674;49.152;11.918;2023-01-24T15:00:46;22.00;;;15.47;;
13218;SDS011;6674;49.152;11.918;2023-01-24T15:03:14;29.90;;;19.70;;
13218;SDS011;6674;49.152;11.918;2023-01-24T15:05:55;23.47;;;18.50;;
13218;SDS011;6674;49.152;11.918;2023-01-24T15:08:30;31.10;;;21.60;;
13218;SDS011;6674;49.152;11.918;2023-01-24T15:11:01;30.80;;;22.30;;
13218;SDS011;6674;49.152;11.918;2023-01-24T15:13:31;21.80;;;16.17;;
13218;SDS011;6674;49.152;11.918;2023-01-24T15:16:02;29.60;;;21.93;;
13218;SDS011;6674;49.152;11.918;2023-01-24T15:18:34;14.47;;;11.73;;
13218;SDS011;6674;49.152;11.918;2023-01-24T15:21:05;16.53;;;13.20;;
13218;SDS011;6674;49.152;11.918;2023-01-24T15:23:42;12.30;;;10.07;;
13218;SDS011;6674;49.152;11.918;2023-01-24T15:26:20;13.37;;;10.50;;
13218;SDS011;6674;49.152;11.918;2023-01-24T15:28:49;13.83;;;11.80;;
13218;SDS011;6674;49.152;11.918;2023-01-24T15:31:17;14.43;;;11.67;;